sensor_id;sensor_type;location;lat;lon;timestamp;pressure;altitude;pressure_sealevel;temperature;humidity
41830;BME280;38614;43.472;23.936;2023-05-03T00:02:03;100504.94;;;12.23;100.00
41830;BME280;38614;43.472;23.936;2023-05-03T00:04:52;100489.69;;;12.14;100.00
41830;BME280;38614;43.472;23.936;2023-05-03T00:07:43;100509.63;;;12.19;100.00
41830;BME280;38614;43.472;23.936;2023-05-03T00:10:31;100518.72;;;12.20;100.00
41830;BME280;38614;43.472;23.936;2023-05-03T00:13:22;100475.06;;;11.97;100.00
41830;BME280;38614;43.472;23.936;2023-05-03T00:16:10;100503.66;;;12.02;100.00
41830;BME280;38614;43.472;23.936;2023-05-03T00:18:58;100508.09;;;12.06;100.00
41830;BME280;38614;43.472;23.936;2023-05-03T00:21:46;100507.38;;;12.09;100.00
41830;BME280;38614;43.472;23.936;2023-05-03T00:24:34;100479.91;;;12.01;100.00
41830;BME280;38614;43.472;23.936;2023-05-03T00:27:22;100514.88;;;12.24;100.00
41830;BME280;38614;43.472;23.936;2023-05-03T00:30:13;100525.78;;;12.17;100.00
41830;BME280;38614;43.472;23.936;2023-05-03T00:33:01;100533.28;;;12.17;100.00
41830;BME280;38614;43.472;23.936;2023-05-03T00:35:48;100527.13;;;12.08;100.00
41830;BME280;38614;43.472;23.936;2023-05-03T00:38:37;100526.34;;;12.07;100.00
41830;BME280;38614;43.472;23.936;2023-05-03T00:41:25;100522.25;;;12.01;100.00
41830;BME280;38614;43.472;23.936;2023-05-03T00:44:13;100501.44;;;11.91;100.00
41830;BME280;38614;43.472;23.936;2023-05-03T00:47:04;100531.69;;;12.16;100.00
41830;BME280;38614;43.472;23.936;2023-05-03T00:49:53;100513.72;;;12.10;100.00
41830;BME280;38614;43.472;23.936;2023-05-03T00:52:41;100508.84;;;12.03;100.00
41830;BME280;38614;43.472;23.936;2023-05-03T00:55:29;100517.06;;;11.99;100.00
41830;BME280;38614;43.472;23.936;2023-05-03T00:58:20;100514.22;;;11.96;100.00
41830;BME280;38614;43.472;23.936;2023-05-03T01:01:08;100491.88;;;11.89;100.00
41830;BME280;38614;43.472;23.936;2023-05-03T01:03:56;100511.97;;;12.02;100.00
41830;BME280;38614;43.472;23.936;2023-05-03T01:06:51;100504.91;;;12.04;100.00
41830;BME280;38614;43.472;23.936;2023-05-03T01:12:52;100510.94;;;12.10;100.00
41830;BME280;38614;43.472;23.936;2023-05-03T01:15:58;100510.25;;;12.13;100.00
41830;BME280;38614;43.472;23.936;2023-05-03T01:18:50;100509.72;;;12.07;100.00
41830;BME280;38614;43.472;23.936;2023-05-03T01:21:41;100504.00;;;12.00;100.00
41830;BME280;38614;43.472;23.936;2023-05-03T01:24:35;100492.59;;;11.86;100.00
41830;BME280;38614;43.472;23.936;2023-05-03T01:27:24;100505.09;;;11.95;100.00
41830;BME280;38614;43.472;23.936;2023-05-03T01:30:12;100516.78;;;12.05;100.00
41830;BME280;38614;43.472;23.936;2023-05-03T01:36:22;100495.78;;;12.04;100.00
41830;BME280;38614;43.472;23.936;2023-05-03T01:39:37;100500.53;;;12.03;100.00
41830;BME280;38614;43.472;23.936;2023-05-03T01:42:28;100512.78;;;12.02;100.00
41830;BME280;38614;43.472;23.936;2023-05-03T01:45:17;100510.38;;;12.01;100.00
41830;BME280;38614;43.472;23.936;2023-05-03T01:48:17;100470.53;;;11.89;100.00
41830;BME280;38614;43.472;23.936;2023-05-03T01:51:05;100487.75;;;11.98;100.00
41830;BME280;38614;43.472;23.936;2023-05-03T01:53:54;100480.78;;;11.89;100.00
41830;BME280;38614;43.472;23.936;2023-05-03T01:56:42;100509.72;;;12.07;100.00
41830;BME280;38614;43.472;23.936;2023-05-03T01:59:31;100520.00;;;12.07;100.00
41830;BME280;38614;43.472;23.936;2023-05-03T02:02:18;100498.59;;;11.88;100.00
41830;BME280;38614;43.472;23.936;2023-05-03T02:05:06;100508.31;;;11.97;100.00
41830;BME280;38614;43.472;23.936;2023-05-03T02:07:54;100523.19;;;12.09;100.00
41830;BME280;38614;43.472;23.936;2023-05-03T02:10:43;100517.06;;;11.99;100.00
41830;BME280;38614;43.472;23.936;2023-05-03T02:13:30;100506.69;;;11.96;100.00
41830;BME280;38614;43.472;23.936;2023-05-03T02:16:18;100490.38;;;11.91;100.00
41830;BME280;38614;43.472;23.936;2023-05-03T02:19:06;100500.16;;;12.05;100.00
41830;BME280;38614;43.472;23.936;2023-05-03T02:21:55;100507.06;;;11.95;100.00
41830;BME280;38614;43.472;23.936;2023-05-03T02:24:43;100494.13;;;11.83;100.00
41830;BME280;38614;43.472;23.936;2023-05-03T02:27:30;100455.09;;;11.73;100.00
41830;BME280;38614;43.472;23.936;2023-05-03T02:30:18;100493.59;;;11.93;100.00
41830;BME280;38614;43.472;23.936;2023-05-03T02:33:06;100506.88;;;11.88;100.00
41830;BME280;38614;43.472;23.936;2023-05-03T02:35:56;100505.91;;;11.96;100.00
41830;BME280;38614;43.472;23.936;2023-05-03T02:38:43;100512.25;;;11.96;100.00
41830;BME280;38614;43.472;23.936;2023-05-03T02:41:31;100506.63;;;11.93;100.00
41830;BME280;38614;43.472;23.936;2023-05-03T02:44:19;100479.56;;;11.86;100.00
41830;BME280;38614;43.472;23.936;2023-05-03T02:47:08;100483.22;;;11.75;100.00
41830;BME280;38614;43.472;23.936;2023-05-03T02:49:59;100517.34;;;11.94;100.00
41830;BME280;38614;43.472;23.936;2023-05-03T02:52:49;100503.94;;;11.81;100.00
41830;BME280;38614;43.472;23.936;2023-05-03T02:55:38;100504.41;;;11.83;100.00
41830;BME280;38614;43.472;23.936;2023-05-03T02:58:26;100506.88;;;11.88;100.00
41830;BME280;38614;43.472;23.936;2023-05-03T03:01:15;100508.06;;;11.87;100.00
41830;BME280;38614;43.472;23.936;2023-05-03T03:04:05;100509.22;;;11.86;100.00
41830;BME280;38614;43.472;23.936;2023-05-03T03:06:53;100499.47;;;11.92;100.00
41830;BME280;38614;43.472;23.936;2023-05-03T03:09:43;100492.41;;;11.79;100.00
41830;BME280;38614;43.472;23.936;2023-05-03T03:12:32;100504.84;;;11.85;100.00
41830;BME280;38614;43.472;23.936;2023-05-03T03:15:20;100463.75;;;11.55;100.00
41830;BME280;38614;43.472;23.936;2023-05-03T03:18:10;100497.31;;;11.69;100.00
41830;BME280;38614;43.472;23.936;2023-05-03T03:20:58;100476.00;;;11.54;100.00
41830;BME280;38614;43.472;23.936;2023-05-03T03:23:46;100523.13;;;11.74;100.00
41830;BME280;38614;43.472;23.936;2023-05-03T03:26:34;100506.00;;;11.84;100.00
41830;BME280;38614;43.472;23.936;2023-05-03T03:29:22;100514.66;;;11.66;100.00
41830;BME280;38614;43.472;23.936;2023-05-03T03:32:10;100524.91;;;11.66;100.00
41830;BME280;38614;43.472;23.936;2023-05-03T03:35:00;100519.28;;;11.62;100.00
41830;BME280;38614;43.472;23.936;2023-05-03T03:37:49;100530.72;;;11.77;100.00
41830;BME280;38614;43.472;23.936;2023-05-03T03:40:38;100530.81;;;11.64;100.00
41830;BME280;38614;43.472;23.936;2023-05-03T03:43:26;100524.81;;;11.62;100.00
41830;BME280;38614;43.472;23.936;2023-05-03T03:46:16;100512.03;;;11.42;100.00
41830;BME280;38614;43.472;23.936;2023-05-03T03:49:06;100531.69;;;11.53;100.00
41830;BME280;38614;43.472;23.936;2023-05-03T03:51:55;100496.13;;;11.23;100.00
41830;BME280;38614;43.472;23.936;2023-05-03T03:54:43;100532.41;;;11.50;100.00
41830;BME280;38614;43.472;23.936;2023-05-03T03:57:32;100533.84;;;11.59;100.00
41830;BME280;38614;43.472;23.936;2023-05-03T04:00:19;100529.03;;;11.56;100.00
41830;BME280;38614;43.472;23.936;2023-05-03T04:03:15;100545.81;;;11.63;100.00
41830;BME280;38614;43.472;23.936;2023-05-03T04:06:04;100540.97;;;11.60;100.00
41830;BME280;38614;43.472;23.936;2023-05-03T04:08:52;100556.91;;;11.63;100.00
41830;BME280;38614;43.472;23.936;2023-05-03T04:11:40;100562.75;;;11.62;100.00
41830;BME280;38614;43.472;23.936;2023-05-03T04:14:27;100570.25;;;11.61;100.00
41830;BME280;38614;43.472;23.936;2023-05-03T04:17:15;100547.97;;;11.54;100.00
41830;BME280;38614;43.472;23.936;2023-05-03T04:20:04;100586.09;;;11.77;100.00
41830;BME280;38614;43.472;23.936;2023-05-03T04:22:59;100585.38;;;11.64;100.00
41830;BME280;38614;43.472;23.936;2023-05-03T04:25:49;100595.66;;;11.79;100.00
41830;BME280;38614;43.472;23.936;2023-05-03T04:28:38;100587.81;;;11.97;100.00
41830;BME280;38614;43.472;23.936;2023-05-03T04:31:26;100578.09;;;12.03;100.00
41830;BME280;38614;43.472;23.936;2023-05-03T04:34:16;100594.16;;;12.13;100.00
41830;BME280;38614;43.472;23.936;2023-05-03T04:37:10;100598.44;;;12.26;100.00
41830;BME280;38614;43.472;23.936;2023-05-03T04:39:59;100592.88;;;12.26;100.00
41830;BME280;38614;43.472;23.936;2023-05-03T04:42:48;100573.50;;;12.26;100.00
41830;BME280;38614;43.472;23.936;2023-05-03T04:45:36;100579.75;;;12.39;100.00
41830;BME280;38614;43.472;23.936;2023-05-03T04:48:28;100580.25;;;12.45;100.00
41830;BME280;38614;43.472;23.936;2023-05-03T04:51:15;100573.03;;;12.40;100.00
41830;BME280;38614;43.472;23.936;2023-05-03T04:54:04;100532.78;;;12.11;100.00
41830;BME280;38614;43.472;23.936;2023-05-03T04:56:53;100575.50;;;12.45;100.00
41830;BME280;38614;43.472;23.936;2023-05-03T04:59:44;100592.03;;;12.58;100.00
41830;BME280;38614;43.472;23.936;2023-05-03T05:02:32;100596.22;;;12.67;100.00
41830;BME280;38614;43.472;23.936;2023-05-03T05:05:20;100600.16;;;12.66;100.00
41830;BME280;38614;43.472;23.936;2023-05-03T05:08:09;100598.09;;;12.63;100.00
41830;BME280;38614;43.472;23.936;2023-05-03T05:11:02;100626.72;;;12.67;100.00
41830;BME280;38614;43.472;23.936;2023-05-03T05:13:51;100626.97;;;12.78;100.00
41830;BME280;38614;43.472;23.936;2023-05-03T05:16:39;100602.50;;;12.83;100.00
41830;BME280;38614;43.472;23.936;2023-05-03T05:19:26;100615.09;;;13.16;100.00
41830;BME280;38614;43.472;23.936;2023-05-03T05:22:15;100621.25;;;13.25;100.00
41830;BME280;38614;43.472;23.936;2023-05-03T05:25:09;100640.94;;;13.39;100.00
41830;BME280;38614;43.472;23.936;2023-05-03T05:28:00;100661.31;;;13.66;100.00
41830;BME280;38614;43.472;23.936;2023-05-03T05:30:48;100662.72;;;13.57;100.00
41830;BME280;38614;43.472;23.936;2023-05-03T05:33:36;100668.59;;;13.52;100.00
41830;BME280;38614;43.472;23.936;2023-05-03T05:36:24;100668.94;;;13.50;100.00
41830;BME280;38614;43.472;23.936;2023-05-03T05:39:12;100676.09;;;13.51;100.00
41830;BME280;38614;43.472;23.936;2023-05-03T05:42:00;100661.13;;;13.56;100.00
41830;BME280;38614;43.472;23.936;2023-05-03T05:44:49;100655.13;;;13.54;100.00
41830;BME280;38614;43.472;23.936;2023-05-03T05:47:39;100661.88;;;13.76;100.00
41830;BME280;38614;43.472;23.936;2023-05-03T05:50:28;100678.72;;;13.63;100.00
41830;BME280;38614;43.472;23.936;2023-05-03T05:53:19;100678.94;;;13.35;100.00
41830;BME280;38614;43.472;23.936;2023-05-03T05:56:14;100671.38;;;13.32;100.00
41830;BME280;38614;43.472;23.936;2023-05-03T05:59:02;100671.00;;;13.34;100.00
41830;BME280;38614;43.472;23.936;2023-05-03T06:01:53;100674.41;;;13.27;100.00
41830;BME280;38614;43.472;23.936;2023-05-03T06:04:40;100672.22;;;13.36;100.00
41830;BME280;38614;43.472;23.936;2023-05-03T06:07:28;100658.34;;;13.36;100.00
41830;BME280;38614;43.472;23.936;2023-05-03T06:10:16;100671.94;;;13.42;100.00
41830;BME280;38614;43.472;23.936;2023-05-03T06:13:07;100670.09;;;13.49;100.00
41830;BME280;38614;43.472;23.936;2023-05-03T06:15:55;100690.78;;;13.52;100.00
41830;BME280;38614;43.472;23.936;2023-05-03T06:18:45;100688.28;;;13.47;100.00
41830;BME280;38614;43.472;23.936;2023-05-03T06:21:33;100690.84;;;13.75;100.00
41830;BME280;38614;43.472;23.936;2023-05-03T06:24:21;100695.00;;;13.65;100.00
41830;BME280;38614;43.472;23.936;2023-05-03T06:27:11;100698.97;;;13.64;100.00
41830;BME280;38614;43.472;23.936;2023-05-03T06:29:59;100665.41;;;13.73;100.00
41830;BME280;38614;43.472;23.936;2023-05-03T06:32:48;100681.38;;;13.98;100.00
41830;BME280;38614;43.472;23.936;2023-05-03T06:35:36;100681.75;;;14.20;100.00
41830;BME280;38614;43.472;23.936;2023-05-03T06:38:24;100680.59;;;14.44;100.00
41830;BME280;38614;43.472;23.936;2023-05-03T06:41:12;100689.09;;;14.32;100.00
41830;BME280;38614;43.472;23.936;2023-05-03T06:44:00;100678.47;;;14.60;100.00
41830;BME280;38614;43.472;23.936;2023-05-03T06:46:51;100679.00;;;14.69;100.00
41830;BME280;38614;43.472;23.936;2023-05-03T06:49:39;100677.75;;;14.90;100.00
41830;BME280;38614;43.472;23.936;2023-05-03T06:52:27;100668.75;;;15.30;100.00
41830;BME280;38614;43.472;23.936;2023-05-03T06:55:15;100669.25;;;15.73;100.00
41830;BME280;38614;43.472;23.936;2023-05-03T06:58:04;100674.41;;;16.08;100.00
41830;BME280;38614;43.472;23.936;2023-05-03T07:00:56;100677.91;;;16.38;100.00
41830;BME280;38614;43.472;23.936;2023-05-03T07:03:44;100693.59;;;16.61;100.00
41830;BME280;38614;43.472;23.936;2023-05-03T07:06:32;100687.91;;;16.46;100.00
41830;BME280;38614;43.472;23.936;2023-05-03T07:09:30;100653.59;;;15.98;100.00
41830;BME280;38614;43.472;23.936;2023-05-03T07:12:29;100659.34;;;16.64;100.00
41830;BME280;38614;43.472;23.936;2023-05-03T07:15:17;100675.78;;;17.42;100.00
41830;BME280;38614;43.472;23.936;2023-05-03T07:18:04;100670.41;;;17.08;97.16
41830;BME280;38614;43.472;23.936;2023-05-03T07:20:53;100668.59;;;17.44;100.00
41830;BME280;38614;43.472;23.936;2023-05-03T07:23:40;100677.84;;;17.59;94.33
41830;BME280;38614;43.472;23.936;2023-05-03T07:26:28;100703.56;;;18.14;95.31
41830;BME280;38614;43.472;23.936;2023-05-03T07:29:16;100705.59;;;18.64;93.69
41830;BME280;38614;43.472;23.936;2023-05-03T07:32:04;100698.78;;;18.58;97.15
41830;BME280;38614;43.472;23.936;2023-05-03T07:34:52;100699.56;;;19.04;93.21
41830;BME280;38614;43.472;23.936;2023-05-03T07:37:40;100684.91;;;19.81;86.84
41830;BME280;38614;43.472;23.936;2023-05-03T07:40:28;100699.59;;;18.40;89.72
41830;BME280;38614;43.472;23.936;2023-05-03T07:43:19;100692.38;;;18.61;93.65
41830;BME280;38614;43.472;23.936;2023-05-03T07:46:09;100691.63;;;18.53;90.58
41830;BME280;38614;43.472;23.936;2023-05-03T07:48:57;100678.03;;;18.69;93.83
41830;BME280;38614;43.472;23.936;2023-05-03T07:51:45;100678.00;;;18.23;92.37
41830;BME280;38614;43.472;23.936;2023-05-03T07:54:32;100682.00;;;18.29;90.86
41830;BME280;38614;43.472;23.936;2023-05-03T07:57:23;100654.03;;;18.40;89.81
41830;BME280;38614;43.472;23.936;2023-05-03T08:00:12;100681.19;;;18.18;89.56
41830;BME280;38614;43.472;23.936;2023-05-03T08:03:00;100685.19;;;18.20;88.05
41830;BME280;38614;43.472;23.936;2023-05-03T08:05:50;100692.78;;;18.16;87.42
41830;BME280;38614;43.472;23.936;2023-05-03T08:08:38;100691.59;;;18.64;84.36
41830;BME280;38614;43.472;23.936;2023-05-03T08:11:26;100689.50;;;19.32;85.45
41830;BME280;38614;43.472;23.936;2023-05-03T08:14:15;100668.97;;;19.67;81.87
41830;BME280;38614;43.472;23.936;2023-05-03T08:17:03;100687.41;;;19.64;84.28
41830;BME280;38614;43.472;23.936;2023-05-03T08:19:54;100683.88;;;19.39;81.30
41830;BME280;38614;43.472;23.936;2023-05-03T08:22:43;100677.91;;;19.23;84.44
41830;BME280;38614;43.472;23.936;2023-05-03T08:25:32;100685.41;;;19.65;82.00
41830;BME280;38614;43.472;23.936;2023-05-03T08:28:23;100662.72;;;20.04;83.91
41830;BME280;38614;43.472;23.936;2023-05-03T08:31:11;100671.75;;;20.30;81.90
41830;BME280;38614;43.472;23.936;2023-05-03T08:33:58;100669.97;;;20.57;82.34
41830;BME280;38614;43.472;23.936;2023-05-03T08:36:47;100682.03;;;20.51;75.80
41830;BME280;38614;43.472;23.936;2023-05-03T08:39:35;100687.34;;;20.83;76.64
41830;BME280;38614;43.472;23.936;2023-05-03T08:42:23;100609.00;;;20.54;76.51
41830;BME280;38614;43.472;23.936;2023-05-03T08:45:13;100667.94;;;21.37;75.21
41830;BME280;38614;43.472;23.936;2023-05-03T08:48:02;100654.50;;;20.31;74.49
41830;BME280;38614;43.472;23.936;2023-05-03T08:50:51;100669.09;;;20.12;75.56
41830;BME280;38614;43.472;23.936;2023-05-03T08:53:40;100645.19;;;20.45;76.46
41830;BME280;38614;43.472;23.936;2023-05-03T08:56:31;100658.22;;;20.66;75.14
41830;BME280;38614;43.472;23.936;2023-05-03T08:59:19;100656.94;;;20.29;73.10
41830;BME280;38614;43.472;23.936;2023-05-03T09:02:08;100648.44;;;20.40;76.71
41830;BME280;38614;43.472;23.936;2023-05-03T09:04:57;100648.56;;;20.18;73.73
41830;BME280;38614;43.472;23.936;2023-05-03T09:08:09;100648.81;;;19.86;76.80
41830;BME280;38614;43.472;23.936;2023-05-03T09:10:57;100637.09;;;20.02;77.75
41830;BME280;38614;43.472;23.936;2023-05-03T09:13:45;100634.41;;;19.81;73.99
41830;BME280;38614;43.472;23.936;2023-05-03T09:16:32;100641.13;;;20.01;73.15
41830;BME280;38614;43.472;23.936;2023-05-03T09:19:20;100617.66;;;19.74;72.22
41830;BME280;38614;43.472;23.936;2023-05-03T09:22:08;100624.97;;;20.16;75.50
41830;BME280;38614;43.472;23.936;2023-05-03T09:24:57;100624.94;;;20.64;76.07
41830;BME280;38614;43.472;23.936;2023-05-03T09:27:59;100622.63;;;20.56;69.88
41830;BME280;38614;43.472;23.936;2023-05-03T09:30:48;100613.91;;;20.84;68.13
41830;BME280;38614;43.472;23.936;2023-05-03T09:33:36;100620.34;;;21.19;68.23
41830;BME280;38614;43.472;23.936;2023-05-03T09:36:27;100615.00;;;22.16;71.93
41830;BME280;38614;43.472;23.936;2023-05-03T09:39:15;100615.34;;;22.88;66.77
41830;BME280;38614;43.472;23.936;2023-05-03T09:42:14;100615.72;;;22.67;66.35
41830;BME280;38614;43.472;23.936;2023-05-03T09:45:02;100622.34;;;22.33;65.80
41830;BME280;38614;43.472;23.936;2023-05-03T09:47:52;100624.69;;;22.62;67.87
41830;BME280;38614;43.472;23.936;2023-05-03T09:50:42;100624.34;;;22.33;63.09
41830;BME280;38614;43.472;23.936;2023-05-03T09:53:34;100616.06;;;21.99;64.24
41830;BME280;38614;43.472;23.936;2023-05-03T09:56:24;100638.84;;;22.08;65.71
41830;BME280;38614;43.472;23.936;2023-05-03T09:59:16;100635.97;;;22.11;64.75
41830;BME280;38614;43.472;23.936;2023-05-03T10:02:05;100630.78;;;22.10;65.40
41830;BME280;38614;43.472;23.936;2023-05-03T10:04:54;100623.63;;;21.75;64.11
41830;BME280;38614;43.472;23.936;2023-05-03T10:07:48;100603.84;;;21.82;65.55
41830;BME280;38614;43.472;23.936;2023-05-03T10:10:39;100614.59;;;21.87;67.26
41830;BME280;38614;43.472;23.936;2023-05-03T10:13:29;100623.53;;;21.82;65.94
41830;BME280;38614;43.472;23.936;2023-05-03T10:16:22;100608.19;;;22.13;65.11
41830;BME280;38614;43.472;23.936;2023-05-03T10:19:40;100608.16;;;21.90;65.00
41830;BME280;38614;43.472;23.936;2023-05-03T10:22:27;100611.19;;;22.50;65.56
41830;BME280;38614;43.472;23.936;2023-05-03T10:25:14;100596.38;;;23.48;66.61
41830;BME280;38614;43.472;23.936;2023-05-03T10:28:05;100610.00;;;24.22;63.82
41830;BME280;38614;43.472;23.936;2023-05-03T10:30:53;100596.88;;;24.77;63.49
41830;BME280;38614;43.472;23.936;2023-05-03T10:33:41;100604.97;;;24.46;61.57
41830;BME280;38614;43.472;23.936;2023-05-03T10:36:29;100601.84;;;25.02;62.90
41830;BME280;38614;43.472;23.936;2023-05-03T10:39:35;100600.16;;;24.76;59.04
41830;BME280;38614;43.472;23.936;2023-05-03T10:42:26;100601.97;;;24.21;64.24
41830;BME280;38614;43.472;23.936;2023-05-03T10:45:22;100583.63;;;24.12;61.10
41830;BME280;38614;43.472;23.936;2023-05-03T10:54:15;100595.72;;;24.74;59.65
41830;BME280;38614;43.472;23.936;2023-05-03T10:57:04;100602.25;;;25.00;64.08
41830;BME280;38614;43.472;23.936;2023-05-03T10:59:52;100581.22;;;24.43;59.79
41830;BME280;38614;43.472;23.936;2023-05-03T11:06:06;100590.84;;;24.46;62.16
41830;BME280;38614;43.472;23.936;2023-05-03T11:08:53;100590.09;;;25.04;62.36
41830;BME280;38614;43.472;23.936;2023-05-03T11:11:41;100576.47;;;25.27;61.63
41830;BME280;38614;43.472;23.936;2023-05-03T11:14:29;100575.41;;;24.80;60.42
41830;BME280;38614;43.472;23.936;2023-05-03T11:17:20;100568.88;;;24.37;62.04
41830;BME280;38614;43.472;23.936;2023-05-03T11:20:08;100562.63;;;24.13;61.30
41830;BME280;38614;43.472;23.936;2023-05-03T11:22:56;100577.44;;;24.50;63.72
41830;BME280;38614;43.472;23.936;2023-05-03T11:25:44;100580.28;;;24.01;61.39
41830;BME280;38614;43.472;23.936;2023-05-03T11:28:32;100573.69;;;23.72;66.00
41830;BME280;38614;43.472;23.936;2023-05-03T11:31:20;100568.34;;;23.94;63.35
41830;BME280;38614;43.472;23.936;2023-05-03T11:34:12;100549.00;;;24.08;65.01
41830;BME280;38614;43.472;23.936;2023-05-03T11:37:02;100561.00;;;24.45;63.02
41830;BME280;38614;43.472;23.936;2023-05-03T11:39:50;100568.34;;;24.10;62.81
41830;BME280;38614;43.472;23.936;2023-05-03T11:42:53;100562.25;;;23.95;62.71
41830;BME280;38614;43.472;23.936;2023-05-03T11:45:44;100543.56;;;23.85;62.76
41830;BME280;38614;43.472;23.936;2023-05-03T11:48:32;100555.44;;;24.25;67.64
41830;BME280;38614;43.472;23.936;2023-05-03T11:51:22;100543.63;;;23.81;60.96
41830;BME280;38614;43.472;23.936;2023-05-03T11:54:10;100529.53;;;23.29;62.61
41830;BME280;38614;43.472;23.936;2023-05-03T11:57:12;100541.59;;;23.29;64.93
41830;BME280;38614;43.472;23.936;2023-05-03T12:00:14;100544.88;;;23.64;64.38
41830;BME280;38614;43.472;23.936;2023-05-03T12:03:03;100547.25;;;23.82;60.47
41830;BME280;38614;43.472;23.936;2023-05-03T12:05:52;100544.69;;;23.71;60.88
41830;BME280;38614;43.472;23.936;2023-05-03T12:08:41;100509.00;;;23.28;59.35
41830;BME280;38614;43.472;23.936;2023-05-03T12:11:39;100539.50;;;23.86;61.97
41830;BME280;38614;43.472;23.936;2023-05-03T12:14:59;100540.09;;;24.10;61.48
41830;BME280;38614;43.472;23.936;2023-05-03T12:17:54;100533.31;;;24.24;61.71
41830;BME280;38614;43.472;23.936;2023-05-03T12:20:54;100532.34;;;24.30;59.51
41830;BME280;38614;43.472;23.936;2023-05-03T12:24:04;100507.44;;;24.25;60.52
41830;BME280;38614;43.472;23.936;2023-05-03T12:26:52;100513.16;;;24.38;59.42
41830;BME280;38614;43.472;23.936;2023-05-03T12:29:43;100503.88;;;23.92;58.92
41830;BME280;38614;43.472;23.936;2023-05-03T12:32:33;100494.66;;;24.21;59.68
41830;BME280;38614;43.472;23.936;2023-05-03T12:35:25;100485.81;;;24.18;57.51
41830;BME280;38614;43.472;23.936;2023-05-03T12:38:14;100476.16;;;24.03;59.64
41830;BME280;38614;43.472;23.936;2023-05-03T12:41:04;100476.28;;;23.67;60.61
41830;BME280;38614;43.472;23.936;2023-05-03T12:43:56;100473.06;;;23.49;60.47
41830;BME280;38614;43.472;23.936;2023-05-03T12:46:46;100458.88;;;23.36;61.28
41830;BME280;38614;43.472;23.936;2023-05-03T12:49:39;100460.28;;;23.44;60.81
41830;BME280;38614;43.472;23.936;2023-05-03T12:52:32;100452.88;;;23.18;62.75
41830;BME280;38614;43.472;23.936;2023-05-03T12:55:24;100449.22;;;23.17;63.61
41830;BME280;38614;43.472;23.936;2023-05-03T12:58:13;100444.81;;;23.00;63.03
41830;BME280;38614;43.472;23.936;2023-05-03T13:01:21;100436.53;;;22.93;64.03
41830;BME280;38614;43.472;23.936;2023-05-03T13:04:30;100441.78;;;22.51;64.31
41830;BME280;38614;43.472;23.936;2023-05-03T13:07:22;100441.53;;;22.26;64.20
41830;BME280;38614;43.472;23.936;2023-05-03T13:10:16;100421.28;;;22.70;63.66
41830;BME280;38614;43.472;23.936;2023-05-03T13:13:10;100417.16;;;22.75;63.23
41830;BME280;38614;43.472;23.936;2023-05-03T13:15:58;100408.72;;;22.75;64.60
41830;BME280;38614;43.472;23.936;2023-05-03T13:18:46;100419.91;;;23.15;64.56
41830;BME280;38614;43.472;23.936;2023-05-03T13:21:34;100412.94;;;23.03;63.85
41830;BME280;38614;43.472;23.936;2023-05-03T13:24:22;100414.63;;;23.00;64.38
41830;BME280;38614;43.472;23.936;2023-05-03T13:27:10;100411.88;;;23.13;63.63
41830;BME280;38614;43.472;23.936;2023-05-03T13:29:59;100399.72;;;23.00;64.39
41830;BME280;38614;43.472;23.936;2023-05-03T13:32:48;100393.13;;;22.90;65.60
41830;BME280;38614;43.472;23.936;2023-05-03T13:35:39;100399.78;;;22.96;64.44
41830;BME280;38614;43.472;23.936;2023-05-03T13:38:27;100399.59;;;22.87;65.44
41830;BME280;38614;43.472;23.936;2023-05-03T13:41:15;100395.94;;;22.90;63.89
41830;BME280;38614;43.472;23.936;2023-05-03T13:44:03;100392.97;;;23.63;64.53
41830;BME280;38614;43.472;23.936;2023-05-03T13:46:51;100386.34;;;24.56;63.34
41830;BME280;38614;43.472;23.936;2023-05-03T13:49:39;100375.03;;;24.43;63.07
41830;BME280;38614;43.472;23.936;2023-05-03T13:52:29;100366.81;;;24.62;62.13
41830;BME280;38614;43.472;23.936;2023-05-03T13:55:17;100370.44;;;24.21;62.38
41830;BME280;38614;43.472;23.936;2023-05-03T13:58:04;100362.13;;;23.55;62.93
41830;BME280;38614;43.472;23.936;2023-05-03T14:00:52;100368.03;;;23.61;62.48
41830;BME280;38614;43.472;23.936;2023-05-03T14:03:40;100344.38;;;23.71;62.74
41830;BME280;38614;43.472;23.936;2023-05-03T14:06:28;100345.09;;;23.75;63.53
41830;BME280;38614;43.472;23.936;2023-05-03T14:09:19;100370.84;;;23.61;65.08
41830;BME280;38614;43.472;23.936;2023-05-03T14:12:07;100367.31;;;23.24;64.73
41830;BME280;38614;43.472;23.936;2023-05-03T14:14:55;100356.28;;;22.97;64.59
41830;BME280;38614;43.472;23.936;2023-05-03T14:17:47;100365.91;;;22.64;66.65
41830;BME280;38614;43.472;23.936;2023-05-03T14:20:35;100364.97;;;22.51;66.39
41830;BME280;38614;43.472;23.936;2023-05-03T14:23:23;100361.25;;;22.17;66.56
41830;BME280;38614;43.472;23.936;2023-05-03T14:26:13;100378.81;;;22.02;65.51
41830;BME280;38614;43.472;23.936;2023-05-03T14:29:01;100376.53;;;21.97;64.80
41830;BME280;38614;43.472;23.936;2023-05-03T14:31:49;100374.41;;;21.81;65.58
41830;BME280;38614;43.472;23.936;2023-05-03T14:34:37;100379.13;;;21.64;64.74
41830;BME280;38614;43.472;23.936;2023-05-03T14:37:24;100367.75;;;21.48;64.45
41830;BME280;38614;43.472;23.936;2023-05-03T14:40:15;100361.69;;;21.26;65.12
41830;BME280;38614;43.472;23.936;2023-05-03T14:43:03;100371.09;;;21.16;65.61
41830;BME280;38614;43.472;23.936;2023-05-03T14:45:54;100354.34;;;20.82;65.84
41830;BME280;38614;43.472;23.936;2023-05-03T14:48:41;100376.13;;;20.74;65.62